Wednesday, August 20, 2014, 6:24 PM EDT
Back to Local

KCXY, Harrisburg Capital City

Location: New Cumberland, PA, United States Lat: 40.217
Local Time: 6:24 PM EDT (22:24 GMT) Lon: -76.85
Time Zone: US/Eastern Elev: 347 ft

Show me the last for .
Show Decoded

2014-08-20 17:56 METAR KCXY 202156Z 19003KT 10SM BKN039 OVC048 24/20 A2998 RMK AO2 SLP151
                 T02440200 =
2014-08-20 16:56 METAR KCXY 202056Z 21003KT 10SM BKN048 BKN055 OVC120 24/21 A2997 RMK AO2 RAE47
                 SLP146 P0002 60005 T02390211 53006 =
2014-08-20 15:56 METAR KCXY 201956Z 00000KT 9SM -RA BKN046 BKN070 OVC085 25/21 A2995 RMK AO2 LTG
                 DSNT NW RAB24 SLP142 P0003 T02500206 =
2014-08-20 15:40 METAR KCXY 201940Z 16004KT 7SM -RA BKN046 BKN060 OVC110 25/19 A2995 RMK AO2 LTG
                 DSNT SW AND NW RAB24 P0002 T02500194 =
2014-08-20 15:25 METAR KCXY 201925Z 17006KT 8SM VCTS -RA SCT045 BKN060 OVC110 26/18 A2995 RMK AO2
                 LTG DSNT SW RAB24 P0000 T02610178 =
2014-08-20 14:56 METAR KCXY 201856Z 20005KT 10SM BKN044 BKN055 27/18 A2995 RMK AO2 LTG DSNT SW-N
                 SLP142 T02670178 =
2014-08-20 13:56 METAR KCXY 201756Z 17009KT 10SM BKN039 27/18 A2995 RMK AO2 SLP139 T02720178
                 10278 20211 58012 =
2014-08-20 12:56 METAR KCXY 201656Z 14007KT 10SM SCT034 BKN045 BKN050 27/18 A2996 RMK AO2 SLP143
                 T02720183 =
2014-08-20 12:34 METAR KCXY 201634Z VRB06G14KT 10SM SCT029 SCT037 OVC045 26/18 A2997 RMK AO2
                 T02610183 =
2014-08-20 11:56 METAR KCXY 201556Z 12005KT 10SM BKN026 OVC039 25/19 A2998 RMK AO2 SLP151
                 T02500194 =
2014-08-20 11:51 METAR KCXY 201551Z VRB05KT 10SM BKN025 OVC039 26/19 A2998 RMK AO2 =
2014-08-20 10:56 METAR KCXY 201456Z 18007KT 10SM OVC022 23/18 A3000 RMK AO2 SLP156 T02330178
                 53010 =
2014-08-20 09:56 METAR KCXY 201356Z VRB05KT 10SM OVC018 23/17 A2999 RMK AO2 SLP153 T02280172 =
2014-08-20 08:56 METAR KCXY 201256Z 11004KT 10SM OVC018 22/18 A2997 RMK AO2 SLP149 T02170178 =
2014-08-20 07:56 METAR KCXY 201156Z 12005KT 10SM OVC017 21/17 A2997 RMK AO2 SLP147 T02110172
                 10228 20206 53015 =
2014-08-20 06:56 METAR KCXY 201056Z 12007KT 10SM OVC017 21/18 A2995 RMK AO2 SLP140 T02110178 =
2014-08-20 05:56 METAR KCXY 200956Z AUTO 15003KT 10SM OVC021 21/18 A2994 RMK AO2 SLP137 T02060178
                 =
2014-08-20 05:04 METAR KCXY 200904Z AUTO 18003KT 10SM BKN022 BKN047 21/18 A2993 RMK AO2 T02060178
                 =
2014-08-20 04:56 METAR KCXY 200856Z AUTO 16004KT 10SM SCT022 BKN047 21/18 A2992 RMK AO2 SLP132
                 T02060178 53000 =
2014-08-20 04:51 METAR KCXY 200851Z AUTO 17003KT 10SM SCT022 BKN046 21/18 A2992 RMK AO2 =
2014-08-20 03:56 METAR KCXY 200756Z AUTO 16004KT 10SM BKN024 BKN044 21/18 A2992 RMK AO2 SLP130
                 T02110183 =
2014-08-20 02:56 METAR KCXY 200656Z AUTO 16004KT 10SM BKN044 22/18 A2992 RMK AO2 SLP130 T02170183
                 =
2014-08-20 01:56 METAR KCXY 200556Z AUTO 10003KT 10SM BKN043 OVC055 23/18 A2992 RMK AO2 SLP131
                 T02280178 10250 20228 51006 =
2014-08-20 00:56 METAR KCXY 200456Z AUTO 11004KT 10SM OVC041 23/18 A2992 RMK AO2 SLP129 T02280183
                 402720172 =
2014-08-19 22:56 METAR KCXY 200256Z AUTO 19004KT 10SM OVC043 24/18 A2991 RMK AO2 SLP125 T02440178
                 51012 =
2014-08-19 21:56 METAR KCXY 200156Z AUTO 19005KT 10SM OVC047 24/18 A2990 RMK AO2 SLP124 T02440183
                 =
2014-08-19 20:56 METAR KCXY 200056Z AUTO 19004KT 10SM SCT048 SCT065 23/18 A2989 RMK AO2 SLP119
                 T02330183 =
2014-08-19 19:56 METAR KCXY 192356Z 17003KT 10SM FEW042 OVC050 25/18 A2987 RMK AO2 SLP115
                 T02500183 10272 20250 51003 =
2014-08-19 18:56 METAR KCXY 192256Z 16004KT 10SM BKN044 OVC060 26/18 A2987 RMK AO2 SLP114
                 T02610178 =

Support USWX by starting your Amazon purchase here.